Terminal Aerodrome Forecast
Issued by NWS Jackson, KY

Home | Current Version | Previous Version | Text Only | Print | Product List | Glossary On
Versions: 1 2 3 4 5 6 7 8 9 10 11 12 13 14
000
FTUS43 KJKL 180500
TAFLOZ
TAF
KLOZ 180529Z 1806/1906 28003KT P6SM SKC
     FM181400 30007KT P6SM BKN030
     FM190400 34003KT P6SM SCT025=

USA.gov is the U.S. government's official web portal to all federal, state and local government web resources and services.